Decoded Metar for SBCG (CAMPO GRANDE in BRAZIL) (IATA:CGR) | Meteo·Mobile Aviation Weather
aviador You're here:

SBCG Decoded Metar

CAMPO GRANDE in BRAZIL
Report Time2019-01-17 23:00:00
UTC Time2019-01-17 23:29:23
Flight Rules vfr VFR
Wind300° at 04 kt
W.Decomp.*RWY 24: 1.0 kt HW 3.9 kt RCW
W.Rank300° ranks 23
Current wind is below 300° avg. (7.7)
Visibility9999 m
Phenomena:N/A
Clouds:N/A
Expected CloudBase > 4,000 ft AGL from Temp-Dew spread
CeilingNone
Temp30°C (ISA +19)
Dew Point20°C (55% RH)
Heat Index31.9°C
QNH1014 hPa
Density Alt4,278 ft
Elevation1,860 ft
Report Wrong Elevation
Raw Report
METAR SBCG 172300Z 30004KT CAVOK 30/20 Q1014=

Extra information for SBCG:More info

Metar Taf Metar & Taf Last 4 Metars F.Rules Stats Wind Profile Meteogram Temp Stats Airport Information Weather charts Add Link Nearby VenuesMetar ALERT Operation Metar Decoded Social comments